Time;durP1;ratioP1;P1;durP2;ratioP2;P2;SDS_P1;SDS_P2;PMS_P1;PMS_P2;Temp;Humidity;BMP_temperature;BMP_pressure;BME280_temperature;BME280_humidity;BME280_pressure;Samples;Min_cycle;Max_cycle;Signal;HPM_P1;HPM_P2
2022/07/08 00:01:56;;;;;;;6.30;2.00;;;16.00;97.80;;;;;;5052585;28;20127;-46
2022/07/08 00:04:22;;;;;;;9.55;2.08;;;16.00;97.80;;;;;;5052582;28;20021;-47
2022/07/08 00:06:48;;;;;;;6.50;2.28;;;16.00;97.70;;;;;;5051958;28;20434;-46
2022/07/08 00:09:15;;;;;;;7.47;1.83;;;16.00;97.80;;;;;;5052302;28;20091;-46
2022/07/08 00:11:41;;;;;;;6.63;1.95;;;16.00;97.80;;;;;;5052237;28;20082;-47
2022/07/08 00:14:08;;;;;;;7.95;2.00;;;16.00;97.90;;;;;;5052392;28;20037;-47
2022/07/08 00:16:34;;;;;;;5.80;2.13;;;16.00;97.80;;;;;;5032993;28;20021;-47
2022/07/08 00:19:00;;;;;;;5.35;2.33;;;15.90;97.80;;;;;;5033687;28;20102;-50
2022/07/08 00:21:25;;;;;;;7.60;2.05;;;15.90;97.90;;;;;;5052044;28;20032;-49
2022/07/08 00:23:51;;;;;;;12.10;2.15;;;15.90;98.00;;;;;;5052396;28;20385;-52
2022/07/08 00:26:16;;;;;;;7.68;1.88;;;15.80;98.10;;;;;;5052196;28;20040;-46
2022/07/08 00:28:42;;;;;;;8.68;1.75;;;15.80;98.10;;;;;;5051526;28;20029;-53
2022/07/08 00:31:07;;;;;;;4.28;1.85;;;15.80;98.20;;;;;;5051983;28;20021;-49
2022/07/08 00:33:34;;;;;;;6.55;2.22;;;15.80;98.10;;;;;;5052067;28;20031;-48
2022/07/08 00:35:59;;;;;;;5.45;2.28;;;15.80;98.20;;;;;;5051460;28;20032;-49
2022/07/08 00:38:25;;;;;;;6.80;1.95;;;15.80;98.10;;;;;;5032483;28;20084;-52
2022/07/08 00:40:50;;;;;;;9.77;2.53;;;15.80;98.10;;;;;;5033981;28;20121;-48
2022/07/08 00:43:32;;;;;;;7.15;2.30;;;15.80;98.10;;;;;;5051854;28;20047;-45
2022/07/08 00:45:58;;;;;;;4.57;1.75;;;15.80;98.70;;;;;;5051801;28;20082;-47
2022/07/08 00:48:23;;;;;;;8.45;1.52;;;15.80;99.00;;;;;;5050936;28;20029;-51
2022/07/08 00:50:49;;;;;;;10.30;2.13;;;15.70;98.90;;;;;;5051713;28;20029;-46
2022/07/08 00:53:15;;;;;;;4.28;1.45;;;15.70;98.70;;;;;;5051749;28;20547;-50
2022/07/08 00:55:41;;;;;;;7.43;1.88;;;15.70;98.60;;;;;;5051454;28;20052;-48
2022/07/08 00:58:06;;;;;;;7.95;1.80;;;15.60;98.50;;;;;;5051067;28;20029;-47
2022/07/08 01:00:32;;;;;;;6.28;1.75;;;15.60;98.50;;;;;;5051528;28;20017;-50
2022/07/08 01:02:57;;;;;;;6.43;1.58;;;15.60;98.50;;;;;;5033847;28;20388;-48
2022/07/08 01:05:23;;;;;;;9.52;3.22;;;15.70;98.50;;;;;;5051605;28;20522;-48
2022/07/08 01:07:48;;;;;;;13.48;1.88;;;15.60;98.50;;;;;;5050740;28;20283;-49
2022/07/08 01:10:14;;;;;;;10.68;2.15;;;15.70;98.50;;;;;;5051548;28;20092;-52
2022/07/08 01:12:39;;;;;;;8.77;2.35;;;15.70;98.60;;;;;;5051401;28;20033;-51
2022/07/08 01:15:06;;;;;;;7.63;1.40;;;15.70;98.70;;;;;;5051462;28;20036;-48
2022/07/08 01:17:43;;;;;;;4.68;1.92;;;15.70;98.70;;;;;;5050458;28;20022;-47
2022/07/08 01:20:11;;;;;;;10.10;2.08;;;15.70;98.70;;;;;;5051707;28;20029;-50
2022/07/08 01:22:37;;;;;;;7.95;1.95;;;15.70;98.80;;;;;;5051395;28;20036;-47
2022/07/08 01:25:04;;;;;;;8.10;2.80;;;15.60;98.90;;;;;;5051552;28;20427;-46
2022/07/08 01:27:30;;;;;;;8.38;2.20;;;15.60;99.00;;;;;;5050417;28;20025;-47
2022/07/08 01:29:57;;;;;;;7.78;1.80;;;15.60;99.00;;;;;;5051258;28;20512;-48
2022/07/08 01:32:22;;;;;;;15.10;2.20;;;15.50;99.10;;;;;;5051230;28;20072;-46
2022/07/08 01:34:48;;;;;;;9.93;2.53;;;15.60;99.50;;;;;;5033112;28;20049;-46
2022/07/08 01:37:13;;;;;;;11.65;2.10;;;15.50;99.20;;;;;;5051195;28;20079;-47
2022/07/08 01:39:38;;;;;;;6.07;2.50;;;15.50;99.20;;;;;;5051495;28;20385;-46
2022/07/08 01:42:05;;;;;;;9.30;2.13;;;15.50;99.30;;;;;;5051231;28;20025;-48
2022/07/08 01:44:31;;;;;;;6.13;1.67;;;15.50;99.40;;;;;;5051112;28;20044;-48
2022/07/08 01:46:57;;;;;;;7.95;1.83;;;15.40;99.50;;;;;;5050243;28;20049;-50
2022/07/08 01:49:22;;;;;;;5.55;2.05;;;15.40;99.50;;;;;;5051163;28;20061;-48
2022/07/08 01:51:48;;;;;;;6.47;2.20;;;15.40;99.50;;;;;;5054878;28;20028;-50
2022/07/08 01:54:13;;;;;;;6.50;2.00;;;15.40;99.60;;;;;;5055073;28;20039;-50
2022/07/08 01:56:41;;;;;;;5.47;2.42;;;15.30;99.70;;;;;;5054701;28;20037;-48
2022/07/08 01:59:06;;;;;;;10.73;2.17;;;15.30;99.80;;;;;;5054400;28;20362;-48
2022/07/08 02:01:32;;;;;;;4.40;1.60;;;15.30;99.90;;;;;;5054739;28;20032;-48
2022/07/08 02:04:01;;;;;;;7.70;2.50;;;15.30;99.90;;;;;;5054775;28;20063;-46
2022/07/08 02:06:28;;;;;;;7.72;1.67;;;15.30;99.90;;;;;;5054555;28;20374;-49
2022/07/08 02:08:53;;;;;;;7.22;2.08;;;15.30;99.90;;;;;;5036417;28;20053;-48
2022/07/08 02:14:03;;;;;;;6.82;1.65;;;15.10;99.90;;;;;;5054746;28;20407;-47
2022/07/08 02:16:29;;;;;;;4.90;1.85;;;15.10;99.90;;;;;;5053206;28;20025;-47
2022/07/08 02:18:54;;;;;;;5.35;1.58;;;15.20;99.90;;;;;;5053859;28;20078;-50
2022/07/08 02:21:20;;;;;;;7.40;1.48;;;15.20;99.90;;;;;;5054414;28;20101;-47
2022/07/08 02:23:45;;;;;;;20.20;3.55;;;15.20;99.90;;;;;;5054359;28;20033;-46
2022/07/08 02:26:11;;;;;;;8.57;1.77;;;15.20;99.90;;;;;;5054257;28;20025;-49
2022/07/08 02:28:36;;;;;;;5.05;1.80;;;15.30;99.90;;;;;;5053659;28;20021;-47
2022/07/08 02:31:02;;;;;;;7.72;2.10;;;15.20;99.90;;;;;;5036431;28;20396;-50
2022/07/08 02:33:27;;;;;;;9.50;2.38;;;15.20;99.90;;;;;;5054155;28;20036;-48
2022/07/08 02:35:53;;;;;;;4.18;2.05;;;15.30;99.90;;;;;;5053995;28;20031;-47
2022/07/08 02:38:20;;;;;;;7.38;2.20;;;15.30;99.90;;;;;;5053259;28;20033;-49
2022/07/08 02:40:46;;;;;;;10.25;3.30;;;15.20;99.90;;;;;;5054190;28;20029;-48
2022/07/08 02:43:11;;;;;;;7.00;1.80;;;15.20;99.90;;;;;;5054063;28;20063;-48
2022/07/08 02:45:37;;;;;;;7.32;2.65;;;15.20;99.90;;;;;;5053946;28;20103;-46
2022/07/08 02:48:05;;;;;;;9.88;2.20;;;15.20;99.90;;;;;;5053209;28;20029;-49
2022/07/08 02:50:30;;;;;;;6.70;1.98;;;15.10;99.90;;;;;;5054485;28;20025;-48
2022/07/08 02:52:56;;;;;;;7.40;2.47;;;15.00;99.90;;;;;;5054052;28;20029;-50
2022/07/08 02:55:21;;;;;;;9.75;1.85;;;15.00;99.90;;;;;;5054190;28;20268;-46
2022/07/08 02:57:47;;;;;;;8.18;1.98;;;14.90;99.90;;;;;;5053136;28;20108;-51
2022/07/08 03:00:13;;;;;;;3.72;1.50;;;14.90;99.90;;;;;;5053725;28;20085;-49
2022/07/08 03:02:38;;;;;;;7.88;2.00;;;14.90;99.90;;;;;;5052499;28;20385;-46
2022/07/08 03:05:04;;;;;;;8.63;2.00;;;14.80;99.90;;;;;;5053737;28;20044;-46
2022/07/08 03:07:29;;;;;;;13.90;2.50;;;14.80;99.90;;;;;;5052577;28;20037;-46
2022/07/08 03:09:55;;;;;;;7.65;1.60;;;14.80;99.90;;;;;;5035715;28;20493;-48
2022/07/08 03:12:20;;;;;;;6.95;2.13;;;14.80;99.90;;;;;;5053462;28;20025;-47
2022/07/08 03:14:46;;;;;;;5.25;2.05;;;14.80;99.90;;;;;;5053461;28;20032;-45
2022/07/08 03:17:11;;;;;;;4.18;1.30;;;14.90;99.90;;;;;;5050690;28;20037;-47
2022/07/08 03:19:37;;;;;;;7.20;1.98;;;14.90;99.90;;;;;;5053639;28;20025;-47
2022/07/08 03:22:03;;;;;;;6.03;1.95;;;14.90;99.90;;;;;;5035581;28;20112;-45
2022/07/08 03:24:29;;;;;;;8.73;2.92;;;14.90;99.90;;;;;;5053251;28;20528;-46
2022/07/08 03:26:54;;;;;;;5.22;2.00;;;14.80;99.90;;;;;;5052768;28;20032;-47
2022/07/08 03:29:20;;;;;;;8.77;2.47;;;14.80;99.90;;;;;;5053015;28;20029;-48
2022/07/08 03:31:45;;;;;;;6.45;1.70;;;14.80;99.90;;;;;;5053194;28;20449;-51
2022/07/08 03:34:11;;;;;;;4.80;2.08;;;14.80;99.90;;;;;;5053185;28;20032;-48
2022/07/08 03:36:36;;;;;;;5.40;2.08;;;14.70;99.90;;;;;;5052761;28;20037;-48
2022/07/08 03:39:02;;;;;;;3.97;1.80;;;14.60;99.90;;;;;;5052424;28;20091;-47
2022/07/08 03:41:28;;;;;;;4.53;1.60;;;14.60;99.90;;;;;;5053212;28;20025;-51
2022/07/08 03:43:53;;;;;;;7.63;2.28;;;14.40;99.90;;;;;;5053457;28;20025;-49
2022/07/08 03:46:20;;;;;;;6.75;1.88;;;14.40;99.90;;;;;;5052854;28;20052;-49
2022/07/08 03:48:45;;;;;;;5.75;1.52;;;14.50;99.90;;;;;;5052152;28;20028;-46
2022/07/08 03:51:11;;;;;;;9.38;2.50;;;14.40;99.90;;;;;;5052990;28;20021;-49
2022/07/08 03:53:37;;;;;;;9.57;2.33;;;14.50;99.90;;;;;;5052742;28;20040;-50
2022/07/08 03:56:05;;;;;;;9.73;2.78;;;14.50;99.90;;;;;;5051855;28;21233;-46
2022/07/08 03:58:30;;;;;;;7.47;1.67;;;14.50;99.90;;;;;;5040408;28;20012;-50
2022/07/08 04:00:56;;;;;;;8.18;2.90;;;14.60;99.90;;;;;;5052594;28;20158;-47
2022/07/08 04:03:21;;;;;;;8.55;2.13;;;14.60;99.90;;;;;;5052541;28;20029;-46
2022/07/08 04:05:47;;;;;;;9.05;1.88;;;14.60;99.90;;;;;;5051961;28;20288;-46
2022/07/08 04:08:12;;;;;;;10.35;2.33;;;14.60;99.90;;;;;;5051581;28;20492;-46
2022/07/08 04:10:38;;;;;;;9.38;1.80;;;14.60;99.90;;;;;;5051747;28;20100;-48
2022/07/08 04:13:03;;;;;;;6.93;1.70;;;14.60;99.90;;;;;;5051927;28;20104;-46
2022/07/08 04:15:29;;;;;;;8.50;2.30;;;14.60;99.90;;;;;;5051433;28;20573;-49
2022/07/08 04:17:54;;;;;;;5.32;1.80;;;14.70;99.90;;;;;;5051321;28;20120;-50
2022/07/08 04:20:20;;;;;;;6.30;1.75;;;14.70;99.90;;;;;;5052044;28;20028;-46
2022/07/08 04:22:45;;;;;;;7.75;2.13;;;14.70;99.90;;;;;;5052123;28;20023;-48
2022/07/08 04:25:11;;;;;;;9.98;1.80;;;14.80;99.90;;;;;;5051584;28;20078;-47
2022/07/08 04:27:37;;;;;;;6.80;1.73;;;14.80;99.90;;;;;;5050895;28;20443;-46
2022/07/08 04:30:03;;;;;;;9.15;2.17;;;14.90;99.90;;;;;;5034004;28;20492;-48
2022/07/08 04:32:29;;;;;;;4.70;1.52;;;14.90;99.90;;;;;;5051412;28;20060;-49
2022/07/08 04:34:58;;;;;;;6.00;1.75;;;15.00;99.90;;;;;;5051179;28;20029;-48
2022/07/08 04:37:25;;;;;;;6.00;2.00;;;15.10;99.90;;;;;;5050593;28;20392;-46
2022/07/08 04:39:50;;;;;;;5.25;1.63;;;15.20;99.90;;;;;;5051589;28;20017;-46
2022/07/08 04:42:16;;;;;;;7.18;1.92;;;15.20;99.90;;;;;;5051676;28;20021;-48
2022/07/08 04:44:41;;;;;;;7.53;1.75;;;15.30;99.90;;;;;;5051717;28;20076;-49
2022/07/08 04:47:07;;;;;;;6.03;1.73;;;15.40;99.90;;;;;;5050292;28;20166;-46
2022/07/08 04:49:32;;;;;;;7.78;1.63;;;15.60;99.90;;;;;;5051225;28;20032;-48
2022/07/08 04:51:58;;;;;;;7.03;1.90;;;15.70;99.90;;;;;;5051125;28;20036;-51
2022/07/08 04:54:24;;;;;;;5.93;1.77;;;15.80;99.90;;;;;;5034207;28;20128;-51
2022/07/08 04:56:49;;;;;;;7.45;2.15;;;15.90;99.80;;;;;;5034637;28;20112;-46
2022/07/08 04:59:15;;;;;;;9.02;1.98;;;16.20;99.50;;;;;;5051050;28;20516;-47
2022/07/08 05:01:40;;;;;;;6.32;1.70;;;16.50;99.00;;;;;;5051518;28;20024;-47
2022/07/08 05:04:06;;;;;;;5.63;1.58;;;17.00;98.40;;;;;;5051577;28;20024;-48
2022/07/08 05:06:32;;;;;;;2.67;1.30;;;17.90;96.80;;;;;;5051187;28;20056;-45
2022/07/08 05:08:57;;;;;;;7.20;1.63;;;19.00;94.90;;;;;;5050767;28;20103;-49
2022/07/08 05:11:23;;;;;;;6.55;1.52;;;20.20;93.00;;;;;;5051279;28;20481;-47
2022/07/08 05:13:48;;;;;;;6.80;2.55;;;21.30;90.90;;;;;;5051104;28;20451;-47
2022/07/08 05:16:14;;;;;;;8.40;1.48;;;21.80;89.40;;;;;;5051137;28;20103;-47
2022/07/08 05:18:41;;;;;;;4.15;1.83;;;21.40;89.30;;;;;;5032681;28;20017;-47
2022/07/08 05:21:06;;;;;;;5.72;1.20;;;20.60;89.90;;;;;;5051313;28;20481;-50
2022/07/08 05:23:32;;;;;;;6.18;1.77;;;20.10;91.30;;;;;;5051077;28;20031;-50
2022/07/08 05:25:57;;;;;;;6.63;1.67;;;20.10;91.20;;;;;;5056182;28;20021;-47
2022/07/08 05:28:23;;;;;;;7.00;1.70;;;20.50;90.70;;;;;;5057021;28;20025;-48
2022/07/08 05:30:49;;;;;;;6.90;1.58;;;21.30;90.10;;;;;;5057865;28;20612;-47
2022/07/08 05:33:14;;;;;;;9.57;1.63;;;22.40;86.90;;;;;;5057909;28;20539;-45
2022/07/08 05:35:40;;;;;;;3.33;1.45;;;22.80;84.50;;;;;;5057035;28;20064;-50
2022/07/08 05:38:05;;;;;;;7.00;1.63;;;22.20;85.00;;;;;;5056968;28;20021;-47
2022/07/08 05:40:31;;;;;;;4.45;1.13;;;21.70;87.20;;;;;;5058549;28;20395;-48
2022/07/08 05:42:56;;;;;;;7.25;1.92;;;21.10;87.90;;;;;;5057389;28;20029;-50
2022/07/08 05:45:22;;;;;;;8.65;1.80;;;20.40;89.80;;;;;;5057287;28;20032;-47
2022/07/08 05:47:47;;;;;;;5.38;1.40;;;19.90;90.60;;;;;;5056815;28;20082;-52
2022/07/08 05:50:13;;;;;;;11.00;1.50;;;19.50;91.50;;;;;;5057641;28;20509;-46
2022/07/08 05:52:39;;;;;;;11.20;2.28;;;19.30;91.60;;;;;;5057765;28;20095;-45
2022/07/08 05:55:05;;;;;;;6.15;1.67;;;19.10;92.10;;;;;;5057550;28;20033;-46
2022/07/08 05:57:31;;;;;;;6.60;1.55;;;19.00;92.40;;;;;;5056421;28;20024;-45
2022/07/08 05:59:56;;;;;;;4.75;1.40;;;18.90;92.60;;;;;;5057757;28;20028;-46
2022/07/08 06:02:22;;;;;;;6.45;1.58;;;18.90;92.60;;;;;;5057564;28;20029;-45
2022/07/08 06:04:47;;;;;;;5.35;1.85;;;19.20;92.50;;;;;;5057575;28;20050;-47
2022/07/08 06:07:13;;;;;;;5.25;1.50;;;19.90;91.50;;;;;;5056892;28;20067;-47
2022/07/08 06:09:38;;;;;;;7.25;2.00;;;21.40;89.20;;;;;;5057640;28;20028;-48
2022/07/08 06:12:05;;;;;;;3.08;1.20;;;23.00;83.80;;;;;;5057456;28;20047;-50
2022/07/08 06:14:30;;;;;;;3.33;2.70;;;24.50;79.80;;;;;;5039538;28;20119;-46
2022/07/08 06:16:55;;;;;;;3.88;1.20;;;25.10;75.70;;;;;;5056881;28;20100;-47
2022/07/08 06:19:22;;;;;;;5.97;1.35;;;24.90;74.60;;;;;;5057523;28;20025;-47
2022/07/08 06:21:48;;;;;;;4.70;1.05;;;25.20;72.90;;;;;;5057949;28;20044;-48
2022/07/08 06:24:14;;;;;;;4.18;1.08;;;26.30;70.20;;;;;;5057518;28;20106;-47
2022/07/08 06:26:39;;;;;;;5.57;1.58;;;26.90;67.20;;;;;;5057347;28;20411;-45
2022/07/08 06:29:05;;;;;;;4.25;1.17;;;27.40;65.00;;;;;;5056871;28;20377;-44
2022/07/08 06:31:31;;;;;;;2.85;1.02;;;27.20;63.80;;;;;;5057648;28;20035;-46
2022/07/08 06:33:56;;;;;;;2.95;1.13;;;26.50;66.00;;;;;;5057500;28;20116;-45
2022/07/08 06:36:26;;;;;;;4.78;0.98;;;26.30;64.60;;;;;;5038084;28;20120;-47
2022/07/08 06:38:52;;;;;;;4.38;1.10;;;25.00;67.10;;;;;;5053457;28;20059;-45
2022/07/08 06:41:18;;;;;;;3.67;1.00;;;24.50;68.20;;;;;;5054330;28;20504;-45
2022/07/08 06:43:45;;;;;;;3.50;0.80;;;23.80;69.10;;;;;;5054021;28;20029;-47
2022/07/08 06:46:10;;;;;;;4.22;1.40;;;23.40;69.80;;;;;;5053965;28;20017;-44
2022/07/08 06:48:36;;;;;;;4.32;1.20;;;22.30;71.30;;;;;;5053362;28;20031;-47
2022/07/08 06:51:01;;;;;;;3.83;1.10;;;21.40;74.80;;;;;;5053886;28;20021;-46
2022/07/08 06:53:28;;;;;;;8.27;1.10;;;21.10;74.30;;;;;;5053863;28;20032;-45
2022/07/08 06:55:54;;;;;;;2.90;1.90;;;21.50;74.60;;;;;;5053614;28;20021;-46
2022/07/08 06:58:19;;;;;;;7.22;0.90;;;22.80;71.40;;;;;;5053236;28;20151;-48
2022/07/08 07:00:45;;;;;;;5.07;1.67;;;23.70;70.40;;;;;;5053801;28;20036;-44
2022/07/08 07:03:10;;;;;;;4.03;1.25;;;25.00;67.50;;;;;;5051806;28;20029;-45
2022/07/08 07:05:36;;;;;;;5.18;1.50;;;26.20;64.70;;;;;;5046815;28;20021;-46
2022/07/08 07:08:01;;;;;;;1.92;0.73;;;26.60;63.20;;;;;;5043111;28;20457;-48
2022/07/08 07:10:27;;;;;;;5.65;1.13;;;27.00;62.00;;;;;;5043475;28;20037;-47
2022/07/08 07:12:53;;;;;;;2.22;0.90;;;26.30;63.00;;;;;;5053776;28;20021;-46
2022/07/08 07:15:18;;;;;;;2.45;1.10;;;25.80;63.70;;;;;;5053063;28;20111;-50
2022/07/08 07:17:44;;;;;;;3.67;1.00;;;24.60;65.60;;;;;;5048048;28;20560;-49
2022/07/08 07:20:10;;;;;;;6.15;1.60;;;24.10;67.10;;;;;;5034584;28;20022;-45
2022/07/08 07:22:36;;;;;;;4.72;1.15;;;23.80;67.60;;;;;;5041562;28;20024;-45
2022/07/08 07:25:02;;;;;;;3.88;1.17;;;23.40;68.30;;;;;;5043469;28;20025;-47
2022/07/08 07:27:27;;;;;;;5.80;1.05;;;22.90;69.60;;;;;;5033196;28;20029;-47
2022/07/08 07:29:53;;;;;;;3.15;1.58;;;23.30;69.20;;;;;;5058213;28;20025;-50
2022/07/08 07:32:18;;;;;;;2.83;1.27;;;23.70;68.50;;;;;;5064231;28;20524;-51
2022/07/08 07:34:44;;;;;;;7.13;1.38;;;23.40;67.80;;;;;;5062286;28;20035;-51
2022/07/08 07:37:10;;;;;;;5.05;1.20;;;23.20;68.30;;;;;;5060328;28;20028;-53
2022/07/08 07:39:35;;;;;;;2.70;1.10;;;23.30;68.10;;;;;;5038623;28;20104;-49
2022/07/08 07:42:01;;;;;;;4.03;1.00;;;24.00;66.90;;;;;;5037674;28;20029;-51
2022/07/08 07:44:26;;;;;;;3.92;0.95;;;24.30;65.60;;;;;;5045209;28;20017;-48
2022/07/08 07:46:52;;;;;;;4.13;1.05;;;25.30;64.40;;;;;;5055521;28;20382;-53
2022/07/08 07:49:18;;;;;;;3.10;1.10;;;26.00;62.60;;;;;;5056612;28;20029;-50
2022/07/08 07:51:43;;;;;;;2.90;0.80;;;27.10;61.20;;;;;;5056657;28;20093;-53
2022/07/08 07:54:09;;;;;;;9.15;2.28;;;28.20;59.70;;;;;;5056602;28;20481;-57
2022/07/08 07:56:34;;;;;;;4.85;1.25;;;28.80;58.00;;;;;;5052764;28;20035;-56
2022/07/08 07:59:03;;;;;;;4.07;1.15;;;29.30;57.60;;;;;;5074623;28;20029;-52
2022/07/08 08:01:28;;;;;;;7.30;1.27;;;30.00;56.40;;;;;;5058838;28;20021;-53
2022/07/08 08:03:54;;;;;;;3.65;1.30;;;29.30;56.80;;;;;;5053195;28;20083;-56
2022/07/08 08:06:19;;;;;;;5.70;1.30;;;29.30;56.20;;;;;;5068074;28;20112;-56
2022/07/08 08:08:45;;;;;;;4.75;2.75;;;28.30;56.20;;;;;;5051697;28;20082;-51
2022/07/08 08:11:10;;;;;;;3.45;1.15;;;27.10;58.40;;;;;;5052931;28;20088;-57
2022/07/08 08:13:36;;;;;;;6.63;3.83;;;25.60;60.90;;;;;;5068108;28;20036;-55
2022/07/08 08:16:02;;;;;;;7.18;1.42;;;25.00;62.20;;;;;;5034667;28;20055;-56
2022/07/08 08:18:27;;;;;;;3.90;1.10;;;25.60;61.80;;;;;;5051465;28;20377;-53
2022/07/08 08:20:53;;;;;;;6.10;1.00;;;26.50;60.60;;;;;;5052142;28;20028;-50
2022/07/08 08:23:18;;;;;;;4.13;1.17;;;26.50;59.30;;;;;;5052186;28;20417;-54
2022/07/08 08:25:44;;;;;;;4.95;1.23;;;26.90;59.60;;;;;;5065684;28;20025;-56
2022/07/08 08:28:09;;;;;;;5.90;1.27;;;26.80;59.20;;;;;;5051059;28;20170;-58
2022/07/08 08:30:35;;;;;;;4.32;1.73;;;26.80;60.00;;;;;;5053676;28;20025;-49
2022/07/08 08:33:01;;;;;;;2.80;1.00;;;26.70;59.60;;;;;;5051977;28;20409;-48
2022/07/08 08:35:26;;;;;;;2.30;1.10;;;25.80;61.00;;;;;;5055244;28;20060;-56
2022/07/08 08:37:52;;;;;;;4.20;1.40;;;25.30;62.40;;;;;;5052896;28;20059;-51
2022/07/08 08:40:21;;;;;;;5.63;1.35;;;25.40;62.90;;;;;;5045993;28;20021;-46
2022/07/08 08:42:47;;;;;;;5.32;1.10;;;25.90;61.70;;;;;;5042786;28;20009;-58
2022/07/08 08:45:12;;;;;;;5.03;1.25;;;26.20;60.20;;;;;;5054992;28;20059;-59
2022/07/08 08:47:38;;;;;;;5.72;1.10;;;26.30;61.50;;;;;;5055773;28;20025;-51
2022/07/08 08:52:54;;;;;;;4.78;1.23;;;24.80;63.30;;;;;;5055758;28;20036;-56
2022/07/08 08:55:27;;;;;;;4.18;1.23;;;24.00;64.90;;;;;;5055128;28;20480;-52
2022/07/08 08:58:01;;;;;;;6.45;1.25;;;22.60;67.50;;;;;;5054222;28;20397;-55
2022/07/08 09:00:27;;;;;;;4.40;1.30;;;21.90;68.80;;;;;;5051113;28;20073;-56
2022/07/08 09:02:54;;;;;;;7.15;1.52;;;21.40;70.80;;;;;;5033591;28;20118;-57
2022/07/08 09:05:21;;;;;;;2.88;1.10;;;21.70;70.80;;;;;;5051708;28;20035;-51
2022/07/08 09:07:47;;;;;;;2.83;0.90;;;22.00;69.70;;;;;;5050733;28;20090;-47
2022/07/08 09:10:14;;;;;;;3.88;1.25;;;22.50;70.10;;;;;;5051456;28;20540;-52
2022/07/08 09:12:58;;;;;;;6.80;1.25;;;23.10;68.90;;;;;;5051647;28;20035;-55
2022/07/08 09:15:34;;;;;;;1.70;1.10;;;23.40;67.00;;;;;;5051452;28;20107;-57
2022/07/08 09:18:01;;;;;;;3.40;1.48;;;24.20;65.40;;;;;;5050394;28;20484;-55
2022/07/08 09:20:36;;;;;;;5.28;1.48;;;24.50;65.20;;;;;;5051105;28;20048;-53
2022/07/08 09:23:02;;;;;;;;;;;24.60;64.90;;;;;;5052056;28;20504;-55
2022/07/08 09:25:31;;;;;;;3.33;1.20;;;24.70;66.10;;;;;;5051280;28;19905;-56
2022/07/08 09:27:58;;;;;;;6.00;1.38;;;24.50;66.00;;;;;;5050244;28;20047;-52
2022/07/08 09:30:28;;;;;;;2.97;1.00;;;24.40;66.40;;;;;;5051480;28;20082;-49
2022/07/08 09:32:58;;;;;;;3.72;1.27;;;24.20;67.50;;;;;;5051269;28;20029;-48
2022/07/08 09:35:36;;;;;;;4.85;1.33;;;24.20;66.70;;;;;;5051126;28;20032;-52
2022/07/08 09:38:06;;;;;;;9.65;1.40;;;23.80;67.50;;;;;;5049978;28;20100;-47
2022/07/08 09:40:33;;;;;;;8.20;1.30;;;23.30;67.80;;;;;;5039267;28;20029;-47
2022/07/08 09:43:26;;;;;;;6.30;1.70;;;22.90;68.50;;;;;;5051283;28;20028;-47
2022/07/08 09:45:52;;;;;;;5.20;1.75;;;22.80;68.90;;;;;;5048045;28;20090;-51
2022/07/08 09:48:18;;;;;;;6.13;1.38;;;22.90;69.00;;;;;;5050882;28;20021;-53
2022/07/08 09:50:48;;;;;;;5.95;1.45;;;22.90;70.90;;;;;;5051250;28;20392;-45
2022/07/08 09:53:19;;;;;;;3.22;1.17;;;23.10;69.40;;;;;;5051369;28;20021;-45
2022/07/08 09:55:47;;;;;;;6.18;1.65;;;23.10;69.50;;;;;;5051228;28;20028;-49
2022/07/08 09:58:14;;;;;;;8.95;1.63;;;23.30;69.10;;;;;;5050279;28;20101;-46
2022/07/08 10:00:41;;;;;;;8.35;1.45;;;23.20;70.70;;;;;;5051861;28;20017;-46
2022/07/08 10:03:07;;;;;;;5.63;1.50;;;23.20;70.80;;;;;;5051347;28;20541;-47
2022/07/08 10:05:33;;;;;;;5.40;1.58;;;23.10;69.10;;;;;;5051820;28;20029;-51
2022/07/08 10:07:59;;;;;;;4.20;1.40;;;22.80;71.40;;;;;;5051590;28;20051;-50
2022/07/08 10:10:25;;;;;;;6.57;1.88;;;22.60;70.30;;;;;;5052876;28;20492;-47
2022/07/08 10:12:56;;;;;;;4.13;1.33;;;22.50;69.70;;;;;;5054570;28;20021;-45
2022/07/08 10:15:22;;;;;;;4.03;1.20;;;22.30;70.40;;;;;;5054213;28;20083;-48
2022/07/08 10:17:50;;;;;;;3.22;1.65;;;22.40;71.80;;;;;;5052681;28;20101;-44
2022/07/08 10:20:17;;;;;;;6.60;3.17;;;22.40;71.60;;;;;;5055285;28;20029;-49
2022/07/08 10:22:46;;;;;;;4.13;1.50;;;22.40;70.50;;;;;;5053708;28;20505;-48
2022/07/08 10:25:13;;;;;;;5.85;1.23;;;22.50;71.00;;;;;;5054310;28;20107;-45
2022/07/08 10:27:39;;;;;;;5.32;1.10;;;22.70;70.80;;;;;;5054154;28;20091;-44
2022/07/08 10:30:19;;;;;;;6.35;1.70;;;22.80;70.60;;;;;;5054532;28;20428;-46
2022/07/08 10:32:48;;;;;;;5.60;1.13;;;22.70;70.10;;;;;;5054588;28;20032;-46
2022/07/08 10:35:19;;;;;;;6.50;1.30;;;22.70;70.70;;;;;;5054087;28;20111;-47
2022/07/08 10:37:58;;;;;;;6.38;1.48;;;22.60;69.30;;;;;;5053877;28;20032;-50
2022/07/08 10:40:42;;;;;;;3.22;1.50;;;22.30;71.20;;;;;;5054612;28;20392;-48
2022/07/08 10:43:20;;;;;;;6.55;1.48;;;22.30;72.00;;;;;;5054111;28;20024;-45
2022/07/08 10:46:10;;;;;;;3.63;1.40;;;22.20;71.40;;;;;;5055351;28;20370;-45
2022/07/08 10:48:41;;;;;;;3.53;1.10;;;22.20;72.80;;;;;;5054391;28;20166;-45
2022/07/08 10:51:27;;;;;;;8.60;1.50;;;22.20;71.80;;;;;;5054803;28;20032;-48
2022/07/08 10:53:53;;;;;;;;;;;22.10;72.80;;;;;;5054968;28;20028;-47
2022/07/08 10:56:49;;;;;;;6.35;1.55;;;22.10;72.60;;;;;;5054639;28;20404;-50
2022/07/08 10:59:22;;;;;;;8.52;1.73;;;22.10;72.80;;;;;;5053569;28;20455;-50
2022/07/08 11:01:52;;;;;;;5.28;1.33;;;22.10;72.90;;;;;;5054346;28;20021;-47
2022/07/08 11:04:26;;;;;;;2.28;1.35;;;21.90;72.70;;;;;;5054214;28;20028;-45
2022/07/08 11:06:53;;;;;;;3.90;1.42;;;21.80;72.80;;;;;;5052998;28;20032;-48
2022/07/08 11:09:19;;;;;;;12.23;2.08;;;21.60;73.30;;;;;;5054052;28;20500;-45
2022/07/08 11:11:45;;;;;;;6.78;1.23;;;21.60;72.30;;;;;;5053686;28;20021;-44
2022/07/08 11:14:13;;;;;;;7.65;1.83;;;21.50;73.30;;;;;;5054001;28;20105;-49
2022/07/08 11:16:38;;;;;;;6.10;1.10;;;21.50;73.40;;;;;;5053383;28;20021;-45
2022/07/08 11:19:07;;;;;;;5.88;1.30;;;21.30;73.40;;;;;;5053029;28;20028;-45
2022/07/08 11:21:34;;;;;;;6.85;1.60;;;21.30;73.20;;;;;;5053233;28;20116;-45
2022/07/08 11:23:59;;;;;;;8.00;1.88;;;21.40;74.10;;;;;;5052733;28;20032;-44
2022/07/08 11:26:25;;;;;;;5.68;1.48;;;21.50;74.60;;;;;;5053033;28;20503;-44
2022/07/08 11:28:50;;;;;;;2.50;1.23;;;21.60;73.80;;;;;;5052424;28;20075;-43
2022/07/08 11:31:27;;;;;;;5.57;1.60;;;21.60;73.00;;;;;;5053433;28;20550;-51
2022/07/08 11:33:52;;;;;;;6.28;1.48;;;21.50;72.50;;;;;;5052997;28;20025;-51
2022/07/08 11:36:19;;;;;;;5.38;2.55;;;21.50;73.60;;;;;;5053682;28;20033;-46
2022/07/08 11:38:46;;;;;;;6.72;1.75;;;21.50;74.40;;;;;;5052238;28;20104;-45
2022/07/08 11:41:12;;;;;;;3.70;1.58;;;21.60;72.00;;;;;;5035193;28;20032;-45
2022/07/08 11:43:38;;;;;;;3.53;1.10;;;21.60;73.80;;;;;;5052814;28;20028;-49
2022/07/08 11:46:14;;;;;;;7.72;3.03;;;21.60;73.30;;;;;;5052621;28;20464;-44
2022/07/08 11:48:40;;;;;;;8.10;1.50;;;21.70;73.50;;;;;;5052013;28;20028;-46
2022/07/08 11:51:06;;;;;;;2.78;1.20;;;21.70;74.00;;;;;;5053106;28;20044;-50
2022/07/08 11:53:31;;;;;;;4.50;1.60;;;21.80;73.80;;;;;;5052278;28;20033;-48
2022/07/08 11:55:57;;;;;;;6.28;1.80;;;21.80;73.60;;;;;;5053007;28;20039;-45
2022/07/08 11:58:23;;;;;;;3.75;1.52;;;21.90;72.60;;;;;;5051905;28;20112;-45
2022/07/08 12:00:50;;;;;;;5.13;1.40;;;21.80;73.10;;;;;;5052876;28;20021;-46
2022/07/08 12:03:16;;;;;;;5.63;1.92;;;21.70;72.90;;;;;;5052776;28;20059;-45
2022/07/08 12:05:42;;;;;;;9.82;2.53;;;21.80;74.40;;;;;;5034600;28;20029;-48
2022/07/08 12:08:11;;;;;;;3.47;1.58;;;21.80;72.60;;;;;;5051592;28;20048;-45
2022/07/08 12:10:37;;;;;;;4.20;1.63;;;21.60;72.00;;;;;;5052510;28;20027;-44
2022/07/08 12:13:03;;;;;;;6.90;1.60;;;21.60;72.40;;;;;;5052875;28;20032;-45
2022/07/08 12:15:36;;;;;;;3.95;1.63;;;21.60;73.20;;;;;;5052763;28;20037;-46
2022/07/08 12:18:03;;;;;;;3.63;1.40;;;21.70;72.80;;;;;;5051713;28;20029;-46
2022/07/08 12:20:32;;;;;;;6.30;1.95;;;21.70;72.80;;;;;;5052466;28;20455;-44
2022/07/08 12:22:58;;;;;;;7.05;1.50;;;21.70;71.80;;;;;;5052531;28;20032;-43
2022/07/08 12:25:24;;;;;;;4.95;1.40;;;21.70;72.40;;;;;;5051859;28;20021;-45
2022/07/08 12:27:58;;;;;;;3.58;1.40;;;21.80;72.70;;;;;;5051457;28;20040;-45
2022/07/08 12:30:28;;;;;;;4.70;1.40;;;21.90;74.90;;;;;;5052279;28;20027;-50
2022/07/08 12:32:59;;;;;;;3.53;1.10;;;22.00;73.10;;;;;;5052039;28;20038;-43
2022/07/08 12:35:29;;;;;;;3.80;1.40;;;22.20;69.70;;;;;;5052058;28;20025;-49
2022/07/08 12:38:05;;;;;;;3.78;2.13;;;22.10;69.80;;;;;;5033379;28;20048;-48
2022/07/08 12:40:37;;;;;;;6.22;1.23;;;22.10;70.40;;;;;;5052359;28;20029;-45
2022/07/08 12:43:04;;;;;;;5.53;1.23;;;22.00;70.90;;;;;;5052112;28;20028;-45
2022/07/08 12:45:30;;;;;;;5.53;1.40;;;22.10;70.20;;;;;;5051960;28;20017;-46
2022/07/08 12:47:56;;;;;;;5.55;1.35;;;22.10;73.00;;;;;;5051220;28;20517;-47
2022/07/08 12:50:22;;;;;;;5.50;1.35;;;22.10;73.70;;;;;;5052027;28;20029;-45
2022/07/08 12:52:48;;;;;;;5.00;1.60;;;22.20;71.60;;;;;;5051265;28;20048;-44